sensor_id;sensor_type;location;lat;lon;timestamp;pressure;altitude;pressure_sealevel;temperature;humidity
18900;BME280;9582;52.018;6.306;2023-03-14T00:02:21;98729.81;;;10.37;100.00
18900;BME280;9582;52.018;6.306;2023-03-14T00:04:48;98728.16;;;10.36;100.00
18900;BME280;9582;52.018;6.306;2023-03-14T00:07:14;98716.53;;;10.40;100.00
18900;BME280;9582;52.018;6.306;2023-03-14T00:09:41;98710.22;;;10.43;100.00
18900;BME280;9582;52.018;6.306;2023-03-14T00:12:08;98696.09;;;10.46;100.00
18900;BME280;9582;52.018;6.306;2023-03-14T00:14:35;98698.84;;;10.44;100.00
18900;BME280;9582;52.018;6.306;2023-03-14T00:17:03;98691.00;;;10.44;100.00
18900;BME280;9582;52.018;6.306;2023-03-14T00:19:29;98702.50;;;10.41;100.00
18900;BME280;9582;52.018;6.306;2023-03-14T00:21:55;98695.50;;;10.42;100.00
18900;BME280;9582;52.018;6.306;2023-03-14T00:24:22;98697.28;;;10.41;100.00
18900;BME280;9582;52.018;6.306;2023-03-14T00:26:48;98695.63;;;10.40;100.00
18900;BME280;9582;52.018;6.306;2023-03-14T00:29:15;98688.50;;;10.42;100.00
18900;BME280;9582;52.018;6.306;2023-03-14T00:31:44;98691.81;;;10.44;100.00
18900;BME280;9582;52.018;6.306;2023-03-14T00:34:12;98691.56;;;10.48;100.00
18900;BME280;9582;52.018;6.306;2023-03-14T00:36:39;98707.03;;;10.51;100.00
18900;BME280;9582;52.018;6.306;2023-03-14T00:39:05;98711.78;;;10.46;100.00
18900;BME280;9582;52.018;6.306;2023-03-14T00:41:32;98699.19;;;10.39;100.00
18900;BME280;9582;52.018;6.306;2023-03-14T00:43:59;98703.34;;;10.31;100.00
18900;BME280;9582;52.018;6.306;2023-03-14T00:46:26;98699.56;;;10.24;100.00
18900;BME280;9582;52.018;6.306;2023-03-14T00:48:52;98702.25;;;10.22;100.00
18900;BME280;9582;52.018;6.306;2023-03-14T00:51:20;98695.88;;;10.15;100.00
18900;BME280;9582;52.018;6.306;2023-03-14T00:53:47;98692.84;;;10.09;100.00
18900;BME280;9582;52.018;6.306;2023-03-14T00:56:14;98701.88;;;10.05;100.00
18900;BME280;9582;52.018;6.306;2023-03-14T00:58:40;98714.31;;;10.01;100.00
18900;BME280;9582;52.018;6.306;2023-03-14T01:01:08;98713.50;;;10.01;100.00
18900;BME280;9582;52.018;6.306;2023-03-14T01:03:35;98717.03;;;10.00;100.00
18900;BME280;9582;52.018;6.306;2023-03-14T01:06:10;98711.81;;;10.00;100.00
18900;BME280;9582;52.018;6.306;2023-03-14T01:08:38;98715.25;;;10.00;100.00
18900;BME280;9582;52.018;6.306;2023-03-14T01:11:06;98720.25;;;10.03;100.00
18900;BME280;9582;52.018;6.306;2023-03-14T01:13:33;98725.25;;;10.06;100.00
18900;BME280;9582;52.018;6.306;2023-03-14T01:16:02;98727.63;;;10.09;100.00
18900;BME280;9582;52.018;6.306;2023-03-14T01:18:30;98731.19;;;10.08;100.00
18900;BME280;9582;52.018;6.306;2023-03-14T01:20:57;98734.53;;;10.10;100.00
18900;BME280;9582;52.018;6.306;2023-03-14T01:23:24;98725.41;;;10.16;100.00
18900;BME280;9582;52.018;6.306;2023-03-14T01:25:52;98721.75;;;10.18;100.00
18900;BME280;9582;52.018;6.306;2023-03-14T01:28:18;98720.69;;;10.21;100.00
18900;BME280;9582;52.018;6.306;2023-03-14T01:30:45;98723.38;;;10.19;100.00
18900;BME280;9582;52.018;6.306;2023-03-14T01:33:12;98720.69;;;10.21;100.00
18900;BME280;9582;52.018;6.306;2023-03-14T01:35:42;98716.28;;;10.21;100.00
18900;BME280;9582;52.018;6.306;2023-03-14T01:38:08;98719.38;;;10.26;100.00
18900;BME280;9582;52.018;6.306;2023-03-14T01:40:41;98717.69;;;10.25;100.00
18900;BME280;9582;52.018;6.306;2023-03-14T01:43:15;98710.94;;;10.23;100.00
18900;BME280;9582;52.018;6.306;2023-03-14T01:46:14;98708.91;;;10.15;100.00
18900;BME280;9582;52.018;6.306;2023-03-14T01:48:46;98700.25;;;10.15;100.00
18900;BME280;9582;52.018;6.306;2023-03-14T01:51:18;98702.34;;;10.10;100.00
18900;BME280;9582;52.018;6.306;2023-03-14T01:53:45;98694.97;;;10.04;100.00
18900;BME280;9582;52.018;6.306;2023-03-14T01:56:14;98691.91;;;10.10;100.00
18900;BME280;9582;52.018;6.306;2023-03-14T01:58:45;98685.72;;;10.11;100.00
18900;BME280;9582;52.018;6.306;2023-03-14T02:01:14;98690.22;;;10.09;100.00
18900;BME280;9582;52.018;6.306;2023-03-14T02:03:46;98690.59;;;10.04;100.00
18900;BME280;9582;52.018;6.306;2023-03-14T02:06:14;98677.78;;;10.01;100.00
18900;BME280;9582;52.018;6.306;2023-03-14T02:08:43;98684.63;;;10.02;100.00
18900;BME280;9582;52.018;6.306;2023-03-14T02:11:16;98668.41;;;9.99;100.00
18900;BME280;9582;52.018;6.306;2023-03-14T02:14:07;98676.22;;;9.99;100.00
18900;BME280;9582;52.018;6.306;2023-03-14T02:17:00;98670.78;;;9.91;100.00
18900;BME280;9582;52.018;6.306;2023-03-14T02:20:03;98666.25;;;9.93;100.00
18900;BME280;9582;52.018;6.306;2023-03-14T02:22:37;98676.00;;;9.91;100.00
18900;BME280;9582;52.018;6.306;2023-03-14T02:25:11;98688.66;;;9.84;100.00
18900;BME280;9582;52.018;6.306;2023-03-14T02:27:42;98690.56;;;9.82;100.00
18900;BME280;9582;52.018;6.306;2023-03-14T02:30:12;98693.19;;;9.82;100.00
18900;BME280;9582;52.018;6.306;2023-03-14T02:32:43;98691.38;;;9.82;100.00
18900;BME280;9582;52.018;6.306;2023-03-14T02:35:15;98698.50;;;9.80;100.00
18900;BME280;9582;52.018;6.306;2023-03-14T02:37:48;98693.19;;;9.82;100.00
18900;BME280;9582;52.018;6.306;2023-03-14T02:40:16;98699.19;;;9.82;100.00
18900;BME280;9582;52.018;6.306;2023-03-14T02:42:44;98705.84;;;9.75;100.00
18900;BME280;9582;52.018;6.306;2023-03-14T02:45:35;98698.59;;;9.68;100.00
18900;BME280;9582;52.018;6.306;2023-03-14T02:48:06;98702.50;;;9.62;100.00
18900;BME280;9582;52.018;6.306;2023-03-14T02:50:36;98715.03;;;9.57;100.00
18900;BME280;9582;52.018;6.306;2023-03-14T02:53:03;98715.59;;;9.50;100.00
18900;BME280;9582;52.018;6.306;2023-03-14T02:55:30;98716.75;;;9.46;100.00
18900;BME280;9582;52.018;6.306;2023-03-14T02:58:02;98701.34;;;9.43;100.00
18900;BME280;9582;52.018;6.306;2023-03-14T03:00:29;98715.56;;;9.39;100.00
18900;BME280;9582;52.018;6.306;2023-03-14T03:02:56;98703.66;;;9.35;100.00
18900;BME280;9582;52.018;6.306;2023-03-14T03:05:23;98703.91;;;9.32;100.00
18900;BME280;9582;52.018;6.306;2023-03-14T03:07:50;98713.63;;;9.29;100.00
18900;BME280;9582;52.018;6.306;2023-03-14T03:10:17;98703.41;;;9.26;100.00
18900;BME280;9582;52.018;6.306;2023-03-14T03:12:43;98697.25;;;9.27;100.00
18900;BME280;9582;52.018;6.306;2023-03-14T03:15:11;98703.19;;;9.29;100.00
18900;BME280;9582;52.018;6.306;2023-03-14T03:17:39;98702.47;;;9.27;100.00
18900;BME280;9582;52.018;6.306;2023-03-14T03:20:06;98711.34;;;9.25;100.00
18900;BME280;9582;52.018;6.306;2023-03-14T03:22:34;98695.72;;;9.25;100.00
18900;BME280;9582;52.018;6.306;2023-03-14T03:25:02;98704.81;;;9.19;100.00
18900;BME280;9582;52.018;6.306;2023-03-14T03:27:30;98704.06;;;9.17;100.00
18900;BME280;9582;52.018;6.306;2023-03-14T03:29:57;98701.59;;;9.16;100.00
18900;BME280;9582;52.018;6.306;2023-03-14T03:32:25;98699.06;;;9.14;100.00
18900;BME280;9582;52.018;6.306;2023-03-14T03:34:52;98693.97;;;9.13;100.00
18900;BME280;9582;52.018;6.306;2023-03-14T03:37:18;98696.72;;;9.11;100.00
18900;BME280;9582;52.018;6.306;2023-03-14T03:39:45;98693.38;;;9.09;100.00
18900;BME280;9582;52.018;6.306;2023-03-14T03:42:12;98683.16;;;9.06;100.00
18900;BME280;9582;52.018;6.306;2023-03-14T03:44:38;98682.66;;;9.01;100.00
18900;BME280;9582;52.018;6.306;2023-03-14T03:47:05;98676.97;;;8.96;100.00
18900;BME280;9582;52.018;6.306;2023-03-14T03:49:33;98676.13;;;8.96;100.00
18900;BME280;9582;52.018;6.306;2023-03-14T03:52:00;98676.13;;;8.96;100.00
18900;BME280;9582;52.018;6.306;2023-03-14T03:54:27;98675.06;;;8.98;100.00
18900;BME280;9582;52.018;6.306;2023-03-14T03:56:54;98669.84;;;8.98;100.00
18900;BME280;9582;52.018;6.306;2023-03-14T03:59:20;98670.69;;;8.99;100.00
18900;BME280;9582;52.018;6.306;2023-03-14T04:01:47;98683.72;;;8.99;100.00
18900;BME280;9582;52.018;6.306;2023-03-14T04:04:14;98671.53;;;8.99;100.00
18900;BME280;9582;52.018;6.306;2023-03-14T04:06:42;98674.13;;;8.99;100.00
18900;BME280;9582;52.018;6.306;2023-03-14T04:09:09;98681.94;;;8.99;100.00
18900;BME280;9582;52.018;6.306;2023-03-14T04:11:40;98676.03;;;8.97;100.00
18900;BME280;9582;52.018;6.306;2023-03-14T04:14:19;98668.00;;;9.00;100.00
18900;BME280;9582;52.018;6.306;2023-03-14T04:16:47;98663.59;;;9.01;100.00
18900;BME280;9582;52.018;6.306;2023-03-14T04:19:16;98662.44;;;9.05;100.00
18900;BME280;9582;52.018;6.306;2023-03-14T04:21:44;98661.50;;;9.06;100.00
18900;BME280;9582;52.018;6.306;2023-03-14T04:24:12;98652.84;;;9.05;100.00
18900;BME280;9582;52.018;6.306;2023-03-14T04:26:40;98654.25;;;9.09;100.00
18900;BME280;9582;52.018;6.306;2023-03-14T04:29:09;98651.44;;;9.12;100.00
18900;BME280;9582;52.018;6.306;2023-03-14T04:31:35;98654.75;;;9.14;100.00
18900;BME280;9582;52.018;6.306;2023-03-14T04:34:02;98657.13;;;9.17;100.00
18900;BME280;9582;52.018;6.306;2023-03-14T04:36:34;98656.91;;;9.20;100.00
18900;BME280;9582;52.018;6.306;2023-03-14T04:39:06;98656.59;;;9.25;100.00
18900;BME280;9582;52.018;6.306;2023-03-14T04:41:35;98657.44;;;9.25;100.00
18900;BME280;9582;52.018;6.306;2023-03-14T04:44:03;98653.03;;;9.26;100.00
18900;BME280;9582;52.018;6.306;2023-03-14T04:46:29;98656.47;;;9.26;100.00
18900;BME280;9582;52.018;6.306;2023-03-14T04:48:56;98642.50;;;9.27;100.00
18900;BME280;9582;52.018;6.306;2023-03-14T04:51:23;98647.59;;;9.29;100.00
18900;BME280;9582;52.018;6.306;2023-03-14T04:53:53;98654.47;;;9.30;100.00
18900;BME280;9582;52.018;6.306;2023-03-14T04:56:21;98653.63;;;9.29;100.00
18900;BME280;9582;52.018;6.306;2023-03-14T04:58:47;98642.38;;;9.29;100.00
18900;BME280;9582;52.018;6.306;2023-03-14T05:01:16;98641.53;;;9.28;100.00
18900;BME280;9582;52.018;6.306;2023-03-14T05:03:53;98642.50;;;9.27;100.00
18900;BME280;9582;52.018;6.306;2023-03-14T05:06:39;98632.28;;;9.24;100.00
18900;BME280;9582;52.018;6.306;2023-03-14T05:09:18;98640.13;;;9.24;100.00
18900;BME280;9582;52.018;6.306;2023-03-14T05:12:05;98625.63;;;9.20;100.00
18900;BME280;9582;52.018;6.306;2023-03-14T05:14:50;98628.22;;;9.20;100.00
18900;BME280;9582;52.018;6.306;2023-03-14T05:17:33;98631.59;;;9.22;100.00
18900;BME280;9582;52.018;6.306;2023-03-14T05:20:00;98634.19;;;9.22;100.00
18900;BME280;9582;52.018;6.306;2023-03-14T05:22:48;98628.97;;;9.22;100.00
18900;BME280;9582;52.018;6.306;2023-03-14T05:25:24;98628.75;;;9.25;100.00
18900;BME280;9582;52.018;6.306;2023-03-14T05:28:20;98628.75;;;9.25;100.00
18900;BME280;9582;52.018;6.306;2023-03-14T05:30:56;98628.00;;;9.23;100.00
18900;BME280;9582;52.018;6.306;2023-03-14T05:33:22;98617.94;;;9.19;100.00
18900;BME280;9582;52.018;6.306;2023-03-14T05:36:01;98619.22;;;9.13;100.00
18900;BME280;9582;52.018;6.306;2023-03-14T05:38:51;98614.47;;;9.07;100.00
18900;BME280;9582;52.018;6.306;2023-03-14T05:41:37;98624.63;;;8.99;100.00
18900;BME280;9582;52.018;6.306;2023-03-14T05:44:19;98625.06;;;8.93;100.00
18900;BME280;9582;52.018;6.306;2023-03-14T05:47:25;98620.50;;;8.84;100.00
18900;BME280;9582;52.018;6.306;2023-03-14T05:50:10;98612.91;;;8.81;100.00
18900;BME280;9582;52.018;6.306;2023-03-14T05:52:50;98619.31;;;8.77;100.00
18900;BME280;9582;52.018;6.306;2023-03-14T05:55:30;98613.88;;;8.80;100.00
18900;BME280;9582;52.018;6.306;2023-03-14T05:58:29;98615.50;;;8.81;100.00
18900;BME280;9582;52.018;6.306;2023-03-14T06:01:26;98624.38;;;8.79;100.00
18900;BME280;9582;52.018;6.306;2023-03-14T06:04:13;98627.97;;;8.78;100.00
18900;BME280;9582;52.018;6.306;2023-03-14T06:06:40;98622.50;;;8.81;100.00
18900;BME280;9582;52.018;6.306;2023-03-14T06:09:08;98631.88;;;8.83;100.00
18900;BME280;9582;52.018;6.306;2023-03-14T06:11:38;98623.94;;;8.85;100.00
18900;BME280;9582;52.018;6.306;2023-03-14T06:14:06;98623.84;;;8.86;100.00
18900;BME280;9582;52.018;6.306;2023-03-14T06:16:34;98620.91;;;8.91;100.00
18900;BME280;9582;52.018;6.306;2023-03-14T06:19:00;98619.50;;;8.98;100.00
18900;BME280;9582;52.018;6.306;2023-03-14T06:21:28;98622.72;;;9.01;100.00
18900;BME280;9582;52.018;6.306;2023-03-14T06:23:55;98619.88;;;9.04;100.00
18900;BME280;9582;52.018;6.306;2023-03-14T06:26:24;98615.38;;;9.06;100.00
18900;BME280;9582;52.018;6.306;2023-03-14T06:28:50;98610.69;;;9.11;100.00
18900;BME280;9582;52.018;6.306;2023-03-14T06:31:18;98613.03;;;9.14;100.00
18900;BME280;9582;52.018;6.306;2023-03-14T06:33:53;98616.25;;;9.18;100.00
18900;BME280;9582;52.018;6.306;2023-03-14T06:36:21;98627.44;;;9.20;100.00
18900;BME280;9582;52.018;6.306;2023-03-14T06:38:48;98626.38;;;9.22;100.00
18900;BME280;9582;52.018;6.306;2023-03-14T06:41:15;98628.97;;;9.22;100.00
18900;BME280;9582;52.018;6.306;2023-03-14T06:43:43;98617.72;;;9.22;100.00
18900;BME280;9582;52.018;6.306;2023-03-14T06:46:11;98630.75;;;9.22;100.00
18900;BME280;9582;52.018;6.306;2023-03-14T06:48:39;98627.44;;;9.20;100.00
18900;BME280;9582;52.018;6.306;2023-03-14T06:51:08;98625.84;;;9.17;100.00
18900;BME280;9582;52.018;6.306;2023-03-14T06:53:34;98625.16;;;9.15;100.00
18900;BME280;9582;52.018;6.306;2023-03-14T06:56:02;98634.03;;;9.13;100.00
18900;BME280;9582;52.018;6.306;2023-03-14T06:58:30;98633.09;;;9.14;100.00
18900;BME280;9582;52.018;6.306;2023-03-14T07:00:58;98637.88;;;9.20;100.00
18900;BME280;9582;52.018;6.306;2023-03-14T07:03:29;98642.94;;;9.21;100.00
18900;BME280;9582;52.018;6.306;2023-03-14T07:05:58;98639.41;;;9.22;100.00
18900;BME280;9582;52.018;6.306;2023-03-14T07:08:26;98640.13;;;9.24;100.00
18900;BME280;9582;52.018;6.306;2023-03-14T07:10:52;98638.94;;;9.28;100.00
18900;BME280;9582;52.018;6.306;2023-03-14T07:13:22;98648.31;;;9.31;100.00
18900;BME280;9582;52.018;6.306;2023-03-14T07:15:55;98641.91;;;9.35;100.00
18900;BME280;9582;52.018;6.306;2023-03-14T07:18:21;98645.16;;;9.39;100.00
18900;BME280;9582;52.018;6.306;2023-03-14T07:20:48;98643.94;;;9.43;100.00
18900;BME280;9582;52.018;6.306;2023-03-14T07:23:15;98636.75;;;9.46;100.00
18900;BME280;9582;52.018;6.306;2023-03-14T07:25:48;98657.28;;;9.51;100.00
18900;BME280;9582;52.018;6.306;2023-03-14T07:28:18;98655.25;;;9.54;100.00
18900;BME280;9582;52.018;6.306;2023-03-14T07:30:47;98649.09;;;9.55;100.00
18900;BME280;9582;52.018;6.306;2023-03-14T07:33:19;98663.91;;;9.55;100.00
18900;BME280;9582;52.018;6.306;2023-03-14T07:35:47;98654.31;;;9.55;100.00
18900;BME280;9582;52.018;6.306;2023-03-14T07:38:13;98667.34;;;9.55;100.00
18900;BME280;9582;52.018;6.306;2023-03-14T07:40:59;98664.97;;;9.52;100.00
18900;BME280;9582;52.018;6.306;2023-03-14T07:43:26;98667.59;;;9.52;100.00
18900;BME280;9582;52.018;6.306;2023-03-14T07:45:56;98681.69;;;9.50;100.00
18900;BME280;9582;52.018;6.306;2023-03-14T07:48:23;98694.84;;;9.48;100.00
18900;BME280;9582;52.018;6.306;2023-03-14T07:50:52;98694.13;;;9.46;100.00
18900;BME280;9582;52.018;6.306;2023-03-14T07:53:20;98695.88;;;9.46;100.00
18900;BME280;9582;52.018;6.306;2023-03-14T07:55:47;98692.56;;;9.44;100.00
18900;BME280;9582;52.018;6.306;2023-03-14T07:58:15;98692.78;;;9.41;100.00
18900;BME280;9582;52.018;6.306;2023-03-14T08:00:42;98736.19;;;9.42;100.00
18900;BME280;9582;52.018;6.306;2023-03-14T08:03:09;98741.63;;;9.39;100.00
18900;BME280;9582;52.018;6.306;2023-03-14T08:05:36;98760.78;;;9.26;100.00
18900;BME280;9582;52.018;6.306;2023-03-14T08:08:04;98780.22;;;9.10;100.00
18900;BME280;9582;52.018;6.306;2023-03-14T08:10:31;98798.19;;;8.89;100.00
18900;BME280;9582;52.018;6.306;2023-03-14T08:12:59;98808.78;;;8.62;100.00
18900;BME280;9582;52.018;6.306;2023-03-14T08:15:28;98820.03;;;8.38;100.00
18900;BME280;9582;52.018;6.306;2023-03-14T08:17:55;98837.88;;;8.17;100.00
18900;BME280;9582;52.018;6.306;2023-03-14T08:20:23;98838.88;;;8.02;100.00
18900;BME280;9582;52.018;6.306;2023-03-14T08:22:50;98848.13;;;7.93;100.00
18900;BME280;9582;52.018;6.306;2023-03-14T08:25:17;98853.38;;;7.79;100.00
18900;BME280;9582;52.018;6.306;2023-03-14T08:27:44;98867.72;;;7.72;100.00
18900;BME280;9582;52.018;6.306;2023-03-14T08:30:12;98874.16;;;7.67;100.00
18900;BME280;9582;52.018;6.306;2023-03-14T08:32:40;98879.75;;;7.61;100.00
18900;BME280;9582;52.018;6.306;2023-03-14T08:35:08;98883.47;;;7.56;100.00
18900;BME280;9582;52.018;6.306;2023-03-14T08:37:35;98890.72;;;7.51;100.00
18900;BME280;9582;52.018;6.306;2023-03-14T08:40:02;98896.94;;;7.49;100.00
18900;BME280;9582;52.018;6.306;2023-03-14T08:42:31;98914.44;;;7.47;100.00
18900;BME280;9582;52.018;6.306;2023-03-14T08:44:58;98918.78;;;7.46;100.00
18900;BME280;9582;52.018;6.306;2023-03-14T08:47:25;98932.88;;;7.42;100.00
18900;BME280;9582;52.018;6.306;2023-03-14T08:49:53;98934.56;;;7.43;100.00
18900;BME280;9582;52.018;6.306;2023-03-14T08:52:19;98939.97;;;7.40;100.00
18900;BME280;9582;52.018;6.306;2023-03-14T08:54:46;98949.44;;;7.41;100.00
18900;BME280;9582;52.018;6.306;2023-03-14T08:57:12;98958.88;;;7.42;100.00
18900;BME280;9582;52.018;6.306;2023-03-14T08:59:39;98978.31;;;7.37;100.00
18900;BME280;9582;52.018;6.306;2023-03-14T09:02:05;98991.97;;;7.26;100.00
18900;BME280;9582;52.018;6.306;2023-03-14T09:04:32;99007.34;;;7.15;100.00
18900;BME280;9582;52.018;6.306;2023-03-14T09:07:00;99033.44;;;7.00;100.00
18900;BME280;9582;52.018;6.306;2023-03-14T09:09:27;99059.22;;;6.73;100.00
18900;BME280;9582;52.018;6.306;2023-03-14T09:11:53;99060.69;;;6.63;100.00
18900;BME280;9582;52.018;6.306;2023-03-14T09:14:20;99084.22;;;6.44;100.00
18900;BME280;9582;52.018;6.306;2023-03-14T09:16:46;99094.53;;;6.30;100.00
18900;BME280;9582;52.018;6.306;2023-03-14T09:19:13;99101.16;;;6.20;100.00
18900;BME280;9582;52.018;6.306;2023-03-14T09:21:39;99100.81;;;6.26;100.00
18900;BME280;9582;52.018;6.306;2023-03-14T09:24:07;99118.81;;;6.29;100.00
18900;BME280;9582;52.018;6.306;2023-03-14T09:26:33;99127.78;;;6.23;100.00
18900;BME280;9582;52.018;6.306;2023-03-14T09:29:00;99153.63;;;6.09;100.00
18900;BME280;9582;52.018;6.306;2023-03-14T09:31:26;99157.75;;;5.96;100.00
18900;BME280;9582;52.018;6.306;2023-03-14T09:33:54;99162.09;;;5.96;100.00
18900;BME280;9582;52.018;6.306;2023-03-14T09:36:21;99173.56;;;5.92;100.00
18900;BME280;9582;52.018;6.306;2023-03-14T09:38:48;99192.91;;;5.84;100.00
18900;BME280;9582;52.018;6.306;2023-03-14T09:41:18;99203.69;;;5.77;100.00
18900;BME280;9582;52.018;6.306;2023-03-14T09:43:46;99214.91;;;5.77;100.00
18900;BME280;9582;52.018;6.306;2023-03-14T09:46:16;99221.94;;;5.75;100.00
18900;BME280;9582;52.018;6.306;2023-03-14T09:48:44;99232.91;;;5.80;100.00
18900;BME280;9582;52.018;6.306;2023-03-14T09:51:12;99239.47;;;5.88;100.00
18900;BME280;9582;52.018;6.306;2023-03-14T09:53:41;99252.28;;;5.91;100.00
18900;BME280;9582;52.018;6.306;2023-03-14T09:56:12;99251.38;;;6.09;100.00
18900;BME280;9582;52.018;6.306;2023-03-14T09:58:44;99274.63;;;6.10;100.00
18900;BME280;9582;52.018;6.306;2023-03-14T10:01:15;99271.31;;;6.24;100.00
18900;BME280;9582;52.018;6.306;2023-03-14T10:03:45;99276.72;;;6.36;100.00
18900;BME280;9582;52.018;6.306;2023-03-14T10:06:13;99298.09;;;6.42;100.00
18900;BME280;9582;52.018;6.306;2023-03-14T10:08:40;99303.81;;;6.48;100.00
18900;BME280;9582;52.018;6.306;2023-03-14T10:11:12;99316.78;;;6.48;100.00
18900;BME280;9582;52.018;6.306;2023-03-14T10:13:50;99337.78;;;6.44;100.00
18900;BME280;9582;52.018;6.306;2023-03-14T10:16:16;99338.59;;;6.28;100.00
18900;BME280;9582;52.018;6.306;2023-03-14T10:18:45;99358.34;;;6.31;100.00
18900;BME280;9582;52.018;6.306;2023-03-14T10:21:20;99377.06;;;6.37;100.00
18900;BME280;9582;52.018;6.306;2023-03-14T10:23:47;99372.91;;;6.51;100.00
18900;BME280;9582;52.018;6.306;2023-03-14T10:26:15;99374.97;;;6.61;100.00
18900;BME280;9582;52.018;6.306;2023-03-14T10:28:43;99386.41;;;6.74;100.00
18900;BME280;9582;52.018;6.306;2023-03-14T10:31:12;99387.75;;;6.81;100.00
18900;BME280;9582;52.018;6.306;2023-03-14T10:33:39;99407.06;;;6.93;100.00
18900;BME280;9582;52.018;6.306;2023-03-14T10:36:17;99425.50;;;6.88;100.00
18900;BME280;9582;52.018;6.306;2023-03-14T10:38:45;99431.66;;;6.86;100.00
18900;BME280;9582;52.018;6.306;2023-03-14T10:41:17;99433.88;;;6.93;100.00
18900;BME280;9582;52.018;6.306;2023-03-14T10:43:49;99442.19;;;7.00;100.00
18900;BME280;9582;52.018;6.306;2023-03-14T10:46:20;99451.75;;;7.00;100.00
18900;BME280;9582;52.018;6.306;2023-03-14T10:49:05;99465.41;;;7.03;100.00
18900;BME280;9582;52.018;6.306;2023-03-14T10:51:32;99467.69;;;7.09;100.00
18900;BME280;9582;52.018;6.306;2023-03-14T10:54:00;99477.41;;;7.06;100.00
18900;BME280;9582;52.018;6.306;2023-03-14T10:56:34;99497.69;;;6.99;100.00
18900;BME280;9582;52.018;6.306;2023-03-14T10:59:00;99499.75;;;6.92;100.00
18900;BME280;9582;52.018;6.306;2023-03-14T11:01:37;99512.91;;;6.89;100.00
18900;BME280;9582;52.018;6.306;2023-03-14T11:04:14;99534.53;;;6.73;100.00
18900;BME280;9582;52.018;6.306;2023-03-14T11:06:49;99555.81;;;6.45;100.00
18900;BME280;9582;52.018;6.306;2023-03-14T11:09:25;99568.13;;;6.23;100.00
18900;BME280;9582;52.018;6.306;2023-03-14T11:11:59;99570.72;;;6.23;100.00
18900;BME280;9582;52.018;6.306;2023-03-14T11:14:33;99600.78;;;6.27;100.00
18900;BME280;9582;52.018;6.306;2023-03-14T11:17:09;99592.16;;;6.45;100.00
18900;BME280;9582;52.018;6.306;2023-03-14T11:19:55;99614.75;;;6.43;100.00
18900;BME280;9582;52.018;6.306;2023-03-14T11:22:28;99619.25;;;6.39;100.00
18900;BME280;9582;52.018;6.306;2023-03-14T11:25:06;99626.94;;;6.41;100.00
18900;BME280;9582;52.018;6.306;2023-03-14T11:27:41;99627.94;;;6.38;100.00
18900;BME280;9582;52.018;6.306;2023-03-14T11:30:17;99638.66;;;6.50;100.00
18900;BME280;9582;52.018;6.306;2023-03-14T11:32:50;99636.78;;;6.53;100.00
18900;BME280;9582;52.018;6.306;2023-03-14T11:35:22;99653.34;;;6.51;100.00
18900;BME280;9582;52.018;6.306;2023-03-14T11:37:53;99651.84;;;6.64;100.00
18900;BME280;9582;52.018;6.306;2023-03-14T11:40:23;99661.66;;;6.76;100.00
18900;BME280;9582;52.018;6.306;2023-03-14T11:42:55;99678.16;;;6.75;100.00
18900;BME280;9582;52.018;6.306;2023-03-14T11:45:29;99702.69;;;6.51;100.00
18900;BME280;9582;52.018;6.306;2023-03-14T11:48:07;99710.25;;;6.36;100.00
18900;BME280;9582;52.018;6.306;2023-03-14T11:50:40;99704.16;;;6.37;100.00
18900;BME280;9582;52.018;6.306;2023-03-14T11:53:12;99713.56;;;6.40;100.00
18900;BME280;9582;52.018;6.306;2023-03-14T11:55:42;99716.28;;;6.56;100.00
18900;BME280;9582;52.018;6.306;2023-03-14T11:58:14;99717.25;;;6.72;100.00
18900;BME280;9582;52.018;6.306;2023-03-14T12:00:41;99729.63;;;6.85;100.00
18900;BME280;9582;52.018;6.306;2023-03-14T12:03:17;99734.69;;;6.88;100.00
18900;BME280;9582;52.018;6.306;2023-03-14T12:05:50;99743.81;;;6.97;100.00
18900;BME280;9582;52.018;6.306;2023-03-14T12:08:34;99754.97;;;6.99;100.00
18900;BME280;9582;52.018;6.306;2023-03-14T12:11:10;99759.44;;;6.95;100.00
18900;BME280;9582;52.018;6.306;2023-03-14T12:13:39;99771.53;;;6.96;100.00
18900;BME280;9582;52.018;6.306;2023-03-14T12:16:19;99767.00;;;7.00;100.00
18900;BME280;9582;52.018;6.306;2023-03-14T12:18:48;99781.19;;;7.12;100.00
18900;BME280;9582;52.018;6.306;2023-03-14T12:21:14;99791.16;;;7.21;100.00
18900;BME280;9582;52.018;6.306;2023-03-14T12:23:43;99794.19;;;7.30;100.00
18900;BME280;9582;52.018;6.306;2023-03-14T12:26:16;99799.16;;;7.35;100.00
18900;BME280;9582;52.018;6.306;2023-03-14T12:28:49;99816.75;;;7.30;100.00
18900;BME280;9582;52.018;6.306;2023-03-14T12:31:38;99809.78;;;7.30;100.00
18900;BME280;9582;52.018;6.306;2023-03-14T12:34:28;99827.41;;;7.24;100.00
18900;BME280;9582;52.018;6.306;2023-03-14T12:37:02;99832.75;;;7.21;100.00
18900;BME280;9582;52.018;6.306;2023-03-14T12:39:37;99843.22;;;7.38;100.00
18900;BME280;9582;52.018;6.306;2023-03-14T12:42:10;99844.91;;;7.39;100.00
18900;BME280;9582;52.018;6.306;2023-03-14T12:44:45;99867.47;;;7.20;100.00
18900;BME280;9582;52.018;6.306;2023-03-14T12:47:50;99867.41;;;7.03;100.00
18900;BME280;9582;52.018;6.306;2023-03-14T12:50:25;99876.16;;;7.00;100.00
18900;BME280;9582;52.018;6.306;2023-03-14T12:53:07;99865.50;;;7.06;100.00
18900;BME280;9582;52.018;6.306;2023-03-14T12:55:43;99886.31;;;7.25;100.00
18900;BME280;9582;52.018;6.306;2023-03-14T12:58:15;99883.06;;;7.38;100.00
18900;BME280;9582;52.018;6.306;2023-03-14T13:00:51;99890.22;;;7.52;100.00
18900;BME280;9582;52.018;6.306;2023-03-14T13:03:22;99892.88;;;7.69;100.00
18900;BME280;9582;52.018;6.306;2023-03-14T13:05:55;99923.75;;;7.58;100.00
18900;BME280;9582;52.018;6.306;2023-03-14T13:08:34;99917.22;;;7.49;100.00
18900;BME280;9582;52.018;6.306;2023-03-14T13:11:02;99924.59;;;7.40;100.00
18900;BME280;9582;52.018;6.306;2023-03-14T13:13:34;99956.78;;;7.19;100.00
18900;BME280;9582;52.018;6.306;2023-03-14T13:16:02;99951.41;;;7.03;100.00
18900;BME280;9582;52.018;6.306;2023-03-14T13:18:34;99948.66;;;7.06;100.00
18900;BME280;9582;52.018;6.306;2023-03-14T13:21:05;99967.09;;;7.20;100.00
18900;BME280;9582;52.018;6.306;2023-03-14T13:23:34;99965.34;;;7.21;100.00
18900;BME280;9582;52.018;6.306;2023-03-14T13:26:01;99966.84;;;7.26;100.00
18900;BME280;9582;52.018;6.306;2023-03-14T13:28:30;99972.53;;;7.34;100.00
18900;BME280;9582;52.018;6.306;2023-03-14T13:30:58;99987.66;;;7.45;100.00